Time,TemperatureF,DewpointF,PressureIn,WindDirection,WindDirectionDegrees,WindSpeedMPH,WindSpeedGustMPH,Humidity,HourlyPrecipIn,Conditions,Clouds,dailyrainin,SoftwareType,DateUTC
2013-01-04 00:03:00,10.5,9.1,30.41,NNW,344,0.0,0.0,94,0.00,,---,0.00,VWS V14.01,2013-01-04 08:03:00,
2013-01-04 00:08:00,10.8,9.4,30.40,NNW,344,0.0,0.0,94,0.00,,---,0.00,VWS V14.01,2013-01-04 08:08:00,
2013-01-04 00:13:00,11.2,9.8,30.40,NNW,344,0.0,0.0,94,0.00,,---,0.00,VWS V14.01,2013-01-04 08:13:00,
2013-01-04 00:18:00,11.7,10.3,30.40,NNW,344,0.0,1.0,94,0.00,,---,0.00,VWS V14.01,2013-01-04 08:18:00,
2013-01-04 00:23:00,12.1,10.9,30.41,NNW,344,0.0,1.0,95,0.00,,---,0.00,VWS V14.01,2013-01-04 08:23:00,
2013-01-04 00:28:00,12.5,11.1,30.41,NNW,344,0.0,1.0,94,0.00,,---,0.00,VWS V14.01,2013-01-04 08:28:00,
2013-01-04 00:33:00,12.7,11.3,30.41,NNW,344,0.0,1.0,94,0.00,,---,0.00,VWS V14.01,2013-01-04 08:33:00,
2013-01-04 00:38:00,13.1,11.7,30.41,NNW,344,0.0,1.0,94,0.00,,---,0.00,VWS V14.01,2013-01-04 08:38:00,
2013-01-04 00:43:00,13.3,12.1,30.40,NNW,344,0.0,1.0,95,0.00,,---,0.00,VWS V14.01,2013-01-04 08:43:00,
2013-01-04 00:48:00,13.4,12.0,30.39,NNW,344,0.0,1.0,94,0.00,,---,0.00,VWS V14.01,2013-01-04 08:48:00,
2013-01-04 00:53:00,13.7,12.3,30.40,NNW,344,0.0,2.0,94,0.00,,---,0.00,VWS V14.01,2013-01-04 08:53:00,
2013-01-04 00:58:00,13.9,12.5,30.39,NNW,344,0.0,2.0,94,0.00,,---,0.00,VWS V14.01,2013-01-04 08:58:00,
2013-01-04 01:03:00,14.1,12.7,30.40,NNW,344,0.0,0.0,94,0.00,,---,0.00,VWS V14.01,2013-01-04 09:03:00,
2013-01-04 01:08:00,14.3,12.9,30.40,NNW,344,0.0,0.0,94,0.00,,---,0.00,VWS V14.01,2013-01-04 09:08:00,
2013-01-04 01:13:00,14.5,13.1,30.40,NNW,344,0.0,0.0,94,0.00,,---,0.00,VWS V14.01,2013-01-04 09:13:00,
2013-01-04 01:18:00,14.8,13.4,30.40,NNW,344,0.0,0.0,94,0.00,,---,0.00,VWS V14.01,2013-01-04 09:18:00,
2013-01-04 01:23:00,14.9,13.5,30.40,NNW,344,0.0,0.0,94,0.00,,---,0.00,VWS V14.01,2013-01-04 09:23:00,
2013-01-04 01:28:00,15.0,13.6,30.40,NNW,344,1.0,1.0,94,0.00,,---,0.00,VWS V14.01,2013-01-04 09:28:00,
2013-01-04 01:33:00,15.2,13.8,30.40,NNW,344,0.0,1.0,94,0.00,,---,0.00,VWS V14.01,2013-01-04 09:33:00,
2013-01-04 01:38:00,15.4,14.0,30.41,NNW,344,0.0,1.0,94,0.00,,---,0.00,VWS V14.01,2013-01-04 09:38:00,
2013-01-04 01:43:00,15.5,14.1,30.40,NNW,344,0.0,1.0,94,0.00,,---,0.00,VWS V14.01,2013-01-04 09:43:00,
2013-01-04 01:48:00,15.7,14.3,30.40,NNW,344,0.0,2.0,94,0.00,,---,0.00,VWS V14.01,2013-01-04 09:48:00,
2013-01-04 01:53:00,15.9,14.5,30.40,NNW,344,0.0,2.0,94,0.00,,---,0.00,VWS V14.01,2013-01-04 09:53:00,
2013-01-04 01:58:00,15.9,14.5,30.39,NNW,344,0.0,2.0,94,0.00,,---,0.00,VWS V14.01,2013-01-04 09:58:00,
2013-01-04 02:03:00,16.1,14.7,30.40,NNW,344,0.0,1.0,94,0.00,,---,0.00,VWS V14.01,2013-01-04 10:03:00,
2013-01-04 02:08:00,16.3,14.9,30.40,NNW,344,0.0,1.0,94,0.00,,---,0.00,VWS V14.01,2013-01-04 10:08:00,
2013-01-04 02:13:00,16.4,15.0,30.40,NNW,344,0.0,1.0,94,0.00,,---,0.00,VWS V14.01,2013-01-04 10:13:00,
2013-01-04 02:18:00,16.4,15.0,30.40,NNW,344,0.0,1.0,94,0.00,,---,0.00,VWS V14.01,2013-01-04 10:18:00,
2013-01-04 02:23:00,16.5,15.1,30.40,NNW,344,0.0,1.0,94,0.00,,---,0.00,VWS V14.01,2013-01-04 10:23:00,
2013-01-04 02:28:00,16.6,15.2,30.40,NNW,344,0.0,1.0,94,0.00,,---,0.00,VWS V14.01,2013-01-04 10:28:00,
2013-01-04 02:33:00,16.7,15.3,30.40,NNW,344,0.0,1.0,94,0.00,,---,0.00,VWS V14.01,2013-01-04 10:33:00,
2013-01-04 02:38:00,16.7,15.3,30.40,NNW,344,0.0,1.0,94,0.00,,---,0.00,VWS V14.01,2013-01-04 10:38:00,
2013-01-04 02:43:00,16.9,15.5,30.40,NNW,344,0.0,1.0,94,0.00,,---,0.00,VWS V14.01,2013-01-04 10:43:00,
2013-01-04 02:48:00,17.1,15.7,30.40,NNW,344,0.0,1.0,94,0.00,,---,0.00,VWS V14.01,2013-01-04 10:48:00,
2013-01-04 02:53:00,17.2,15.8,30.40,NNW,344,0.0,1.0,94,0.00,,---,0.00,VWS V14.01,2013-01-04 10:53:00,
2013-01-04 02:58:00,17.2,15.8,30.40,NNW,344,0.0,1.0,94,0.00,,---,0.00,VWS V14.01,2013-01-04 10:58:00,
2013-01-04 03:03:00,17.3,15.9,30.40,NNW,344,0.0,1.0,94,0.00,,---,0.00,VWS V14.01,2013-01-04 11:03:00,
2013-01-04 03:08:00,17.5,16.1,30.40,NNW,344,0.0,1.0,94,0.00,,---,0.00,VWS V14.01,2013-01-04 11:08:00,
2013-01-04 03:13:00,17.5,16.1,30.40,NNW,344,0.0,1.0,94,0.00,,---,0.00,VWS V14.01,2013-01-04 11:13:00,
2013-01-04 03:18:00,17.6,16.2,30.40,NNW,344,0.0,1.0,94,0.00,,---,0.00,VWS V14.01,2013-01-04 11:18:00,
2013-01-04 03:23:00,17.7,16.3,30.39,NNW,344,0.0,1.0,94,0.00,,---,0.00,VWS V14.01,2013-01-04 11:23:00,
2013-01-04 03:28:00,17.8,16.4,30.39,NNW,344,0.0,1.0,94,0.00,,---,0.00,VWS V14.01,2013-01-04 11:28:00,
2013-01-04 03:33:00,17.9,16.5,30.40,NNW,344,0.0,1.0,94,0.00,,---,0.00,VWS V14.01,2013-01-04 11:33:00,
2013-01-04 03:38:00,17.9,16.5,30.40,NNW,344,0.0,1.0,94,0.00,,---,0.00,VWS V14.01,2013-01-04 11:38:00,
2013-01-04 03:43:00,18.0,16.6,30.39,NNW,344,0.0,1.0,94,0.00,,---,0.00,VWS V14.01,2013-01-04 11:43:00,
2013-01-04 03:48:00,18.0,16.6,30.40,NNW,344,0.0,1.0,94,0.00,,---,0.00,VWS V14.01,2013-01-04 11:48:00,
2013-01-04 03:53:00,18.2,16.8,30.40,NNW,344,0.0,1.0,94,0.00,,---,0.00,VWS V14.01,2013-01-04 11:53:00,
2013-01-04 03:58:00,18.4,17.2,30.40,NNW,344,0.0,1.0,95,0.00,,---,0.00,VWS V14.01,2013-01-04 11:58:00,
2013-01-04 04:03:00,18.5,17.3,30.40,NNW,344,0.0,0.0,95,0.00,,---,0.00,VWS V14.01,2013-01-04 12:03:00,
2013-01-04 04:08:00,18.6,17.2,30.39,NNW,344,0.0,1.0,94,0.00,,---,0.00,VWS V14.01,2013-01-04 12:08:00,
2013-01-04 04:13:00,18.6,17.2,30.39,NNW,344,0.0,1.0,94,0.00,,---,0.00,VWS V14.01,2013-01-04 12:13:00,
2013-01-04 04:18:00,18.6,17.2,30.39,NNW,344,0.0,1.0,94,0.00,,---,0.00,VWS V14.01,2013-01-04 12:18:00,
2013-01-04 04:23:00,18.7,17.3,30.39,NNW,344,0.0,1.0,94,0.00,,---,0.00,VWS V14.01,2013-01-04 12:23:00,
2013-01-04 04:28:00,18.7,17.3,30.38,NNW,344,0.0,1.0,94,0.00,,---,0.00,VWS V14.01,2013-01-04 12:28:00,
2013-01-04 04:33:00,18.8,17.4,30.39,NNW,344,0.0,1.0,94,0.00,,---,0.00,VWS V14.01,2013-01-04 12:33:00,
2013-01-04 04:38:00,19.0,17.8,30.39,NNW,344,1.0,2.0,95,0.00,,---,0.00,VWS V14.01,2013-01-04 12:38:00,
2013-01-04 04:43:00,19.1,17.9,30.39,NNW,344,0.0,2.0,95,0.00,,---,0.00,VWS V14.01,2013-01-04 12:43:00,
2013-01-04 04:48:00,19.3,18.1,30.39,NNW,344,0.0,2.0,95,0.00,,---,0.00,VWS V14.01,2013-01-04 12:48:00,
2013-01-04 04:53:00,19.4,18.2,30.39,NNW,344,0.0,2.0,95,0.00,,---,0.00,VWS V14.01,2013-01-04 12:53:00,
2013-01-04 04:58:00,19.5,18.3,30.39,NNW,344,0.0,2.0,95,0.00,,---,0.00,VWS V14.01,2013-01-04 12:58:00,
2013-01-04 05:03:00,19.6,18.4,30.39,NNW,344,0.0,0.0,95,0.00,,---,0.00,VWS V14.01,2013-01-04 13:03:00,
2013-01-04 05:08:00,19.6,18.4,30.39,NNW,344,0.0,0.0,95,0.00,,---,0.00,VWS V14.01,2013-01-04 13:08:00,
2013-01-04 05:13:00,19.7,18.5,30.39,NNW,344,0.0,0.0,95,0.00,,---,0.00,VWS V14.01,2013-01-04 13:13:00,
2013-01-04 05:18:00,19.7,18.5,30.39,NNW,344,0.0,0.0,95,0.00,,---,0.00,VWS V14.01,2013-01-04 13:18:00,
2013-01-04 05:23:00,19.8,18.6,30.39,NNW,344,0.0,0.0,95,0.00,,---,0.00,VWS V14.01,2013-01-04 13:23:00,
2013-01-04 05:28:00,19.8,18.6,30.39,NNW,344,0.0,0.0,95,0.00,,---,0.00,VWS V14.01,2013-01-04 13:28:00,
2013-01-04 05:33:00,19.8,18.6,30.39,NNW,344,0.0,0.0,95,0.00,,---,0.00,VWS V14.01,2013-01-04 13:33:00,
2013-01-04 05:38:00,19.8,18.6,30.39,NNW,344,0.0,0.0,95,0.00,,---,0.00,VWS V14.01,2013-01-04 13:38:00,
2013-01-04 05:43:00,19.8,18.6,30.39,NNW,344,0.0,0.0,95,0.00,,---,0.00,VWS V14.01,2013-01-04 13:43:00,
2013-01-04 05:48:00,19.8,18.6,30.39,NNW,344,0.0,1.0,95,0.00,,---,0.00,VWS V14.01,2013-01-04 13:48:00,
2013-01-04 05:53:00,19.8,18.6,30.39,NNW,344,0.0,1.0,95,0.00,,---,0.00,VWS V14.01,2013-01-04 13:53:00,
2013-01-04 05:58:00,19.8,18.4,30.39,NNW,344,0.0,1.0,94,0.00,,---,0.00,VWS V14.01,2013-01-04 13:58:00,
2013-01-04 06:03:00,19.8,18.4,30.39,NNW,344,0.0,0.0,94,0.00,,---,0.00,VWS V14.01,2013-01-04 14:03:00,
2013-01-04 06:08:00,19.9,18.5,30.39,NNW,344,0.0,0.0,94,0.00,,---,0.00,VWS V14.01,2013-01-04 14:08:00,
2013-01-04 06:13:00,19.8,18.4,30.39,NNW,344,0.0,0.0,94,0.00,,---,0.00,VWS V14.01,2013-01-04 14:13:00,
2013-01-04 06:18:00,19.8,18.6,30.39,NNW,344,0.0,0.0,95,0.00,,---,0.00,VWS V14.01,2013-01-04 14:18:00,
2013-01-04 06:23:00,19.8,18.6,30.39,NNW,344,0.0,1.0,95,0.00,,---,0.00,VWS V14.01,2013-01-04 14:23:00,
2013-01-04 06:28:00,19.9,18.5,30.39,NNW,344,0.0,1.0,94,0.00,,---,0.00,VWS V14.01,2013-01-04 14:28:00,
2013-01-04 06:33:00,19.9,18.5,30.39,NNW,344,0.0,1.0,94,0.00,,---,0.00,VWS V14.01,2013-01-04 14:33:00,
2013-01-04 06:38:00,19.9,18.5,30.39,NNW,344,0.0,1.0,94,0.00,,---,0.00,VWS V14.01,2013-01-04 14:38:00,
2013-01-04 06:43:00,19.9,18.5,30.39,NNW,344,0.0,1.0,94,0.00,,---,0.00,VWS V14.01,2013-01-04 14:43:00,
2013-01-04 06:48:00,19.9,18.5,30.39,NNW,344,0.0,1.0,94,0.00,,---,0.00,VWS V14.01,2013-01-04 14:48:00,
2013-01-04 06:53:00,19.9,18.7,30.39,NNW,344,0.0,1.0,95,0.00,,---,0.00,VWS V14.01,2013-01-04 14:53:00,
2013-01-04 06:58:00,20.0,18.8,30.39,NNW,344,0.0,1.0,95,0.00,,---,0.00,VWS V14.01,2013-01-04 14:58:00,
2013-01-04 07:03:00,20.0,18.8,30.39,NNW,344,0.0,0.0,95,0.00,,---,0.00,VWS V14.01,2013-01-04 15:03:00,
2013-01-04 07:08:00,20.0,18.8,30.39,NNW,344,0.0,0.0,95,0.00,,---,0.00,VWS V14.01,2013-01-04 15:08:00,
2013-01-04 07:13:00,20.1,18.9,30.38,NNW,344,0.0,0.0,95,0.00,,---,0.00,VWS V14.01,2013-01-04 15:13:00,
2013-01-04 07:18:00,20.2,19.0,30.38,NNW,344,0.0,0.0,95,0.00,,---,0.00,VWS V14.01,2013-01-04 15:18:00,
2013-01-04 07:23:00,20.2,19.0,30.38,NNW,344,0.0,0.0,95,0.00,,---,0.00,VWS V14.01,2013-01-04 15:23:00,
2013-01-04 07:28:00,20.3,19.1,30.38,NNW,344,0.0,0.0,95,0.00,,---,0.00,VWS V14.01,2013-01-04 15:28:00,
2013-01-04 07:33:00,20.3,19.1,30.38,NNW,344,0.0,0.0,95,0.00,,---,0.00,VWS V14.01,2013-01-04 15:33:00,
2013-01-04 07:38:00,20.4,19.2,30.38,NNW,344,0.0,0.0,95,0.00,,---,0.00,VWS V14.01,2013-01-04 15:38:00,
2013-01-04 07:43:00,20.4,19.2,30.39,NNW,344,0.0,0.0,95,0.00,,---,0.00,VWS V14.01,2013-01-04 15:43:00,
2013-01-04 07:48:00,20.5,19.3,30.38,NNW,344,0.0,0.0,95,0.00,,---,0.00,VWS V14.01,2013-01-04 15:48:00,
2013-01-04 07:53:00,20.6,19.4,30.38,NNW,344,0.0,0.0,95,0.00,,---,0.00,VWS V14.01,2013-01-04 15:53:00,
2013-01-04 07:58:00,20.6,19.4,30.39,NNW,344,0.0,0.0,95,0.00,,---,0.00,VWS V14.01,2013-01-04 15:58:00,
2013-01-04 08:03:00,20.7,19.5,30.39,NNW,344,0.0,0.0,95,0.00,,---,0.00,VWS V14.01,2013-01-04 16:03:00,
2013-01-04 08:08:00,20.8,19.6,30.39,NNW,344,0.0,0.0,95,0.00,,---,0.00,VWS V14.01,2013-01-04 16:08:00,
2013-01-04 08:13:00,20.9,19.7,30.39,NNW,344,0.0,0.0,95,0.00,,---,0.00,VWS V14.01,2013-01-04 16:13:00,
2013-01-04 08:18:00,21.0,19.8,30.39,NNW,344,0.0,0.0,95,0.00,,---,0.00,VWS V14.01,2013-01-04 16:18:00,
2013-01-04 08:23:00,21.2,20.0,30.40,NNW,344,0.0,2.0,95,0.00,,---,0.00,VWS V14.01,2013-01-04 16:23:00,
2013-01-04 08:28:00,21.3,20.1,30.40,NNW,344,0.0,2.0,95,0.00,,---,0.00,VWS V14.01,2013-01-04 16:28:00,
2013-01-04 08:33:00,21.4,20.2,30.40,NNW,344,0.0,2.0,95,0.00,,---,0.00,VWS V14.01,2013-01-04 16:33:00,
2013-01-04 08:38:00,21.5,20.3,30.39,NNW,344,0.0,2.0,95,0.00,,---,0.00,VWS V14.01,2013-01-04 16:38:00,
2013-01-04 08:43:00,21.7,20.5,30.40,NNW,344,0.0,2.0,95,0.00,,---,0.00,VWS V14.01,2013-01-04 16:43:00,
2013-01-04 08:48:00,21.8,20.6,30.40,NNW,344,0.0,2.0,95,0.00,,---,0.00,VWS V14.01,2013-01-04 16:48:00,
2013-01-04 08:53:00,22.0,20.8,30.39,NNW,344,0.0,2.0,95,0.00,,---,0.00,VWS V14.01,2013-01-04 16:53:00,
2013-01-04 08:58:00,22.2,21.0,30.39,NNW,344,0.0,2.0,95,0.00,,---,0.00,VWS V14.01,2013-01-04 16:58:00,
2013-01-04 09:03:00,22.3,21.1,30.39,NNW,344,0.0,0.0,95,0.00,,---,0.00,VWS V14.01,2013-01-04 17:03:00,
2013-01-04 09:08:00,22.5,21.3,30.39,NNW,344,0.0,1.0,95,0.00,,---,0.00,VWS V14.01,2013-01-04 17:08:00,
2013-01-04 09:13:00,22.6,21.4,30.40,NNW,344,0.0,2.0,95,0.00,,---,0.00,VWS V14.01,2013-01-04 17:13:00,
2013-01-04 09:18:00,22.8,21.6,30.40,NNW,344,1.0,2.0,95,0.00,,---,0.00,VWS V14.01,2013-01-04 17:18:00,
2013-01-04 09:23:00,22.9,21.7,30.41,NNW,344,0.0,2.0,95,0.00,,---,0.00,VWS V14.01,2013-01-04 17:23:00,
2013-01-04 09:28:00,23.0,21.8,30.41,NNW,344,0.0,2.0,95,0.00,,---,0.00,VWS V14.01,2013-01-04 17:28:00,
2013-01-04 09:33:00,23.2,22.0,30.41,NNW,344,0.0,2.0,95,0.00,,---,0.00,VWS V14.01,2013-01-04 17:33:00,
2013-01-04 09:38:00,23.3,22.1,30.41,NNW,344,0.0,2.0,95,0.00,,---,0.00,VWS V14.01,2013-01-04 17:38:00,
2013-01-04 09:43:00,23.6,22.4,30.41,NNW,344,0.0,2.0,95,0.00,,---,0.00,VWS V14.01,2013-01-04 17:43:00,
2013-01-04 09:48:00,23.7,22.5,30.41,NNW,344,0.0,2.0,95,0.00,,---,0.00,VWS V14.01,2013-01-04 17:48:00,
2013-01-04 09:53:00,23.9,22.7,30.41,NNW,344,0.0,2.0,95,0.00,,---,0.00,VWS V14.01,2013-01-04 17:53:00,
2013-01-04 09:58:00,24.2,23.0,30.41,NNW,344,0.0,2.0,95,0.00,,---,0.00,VWS V14.01,2013-01-04 17:58:00,
2013-01-04 10:03:00,24.4,22.9,30.42,NNW,344,0.0,0.0,94,0.00,,---,0.00,VWS V14.01,2013-01-04 18:03:00,
2013-01-04 10:08:00,24.7,23.2,30.42,NNW,344,0.0,0.0,94,0.00,,---,0.00,VWS V14.01,2013-01-04 18:08:00,
2013-01-04 10:13:00,24.9,23.4,30.41,West,274,1.0,3.0,94,0.00,,---,0.00,VWS V14.01,2013-01-04 18:13:00,
2013-01-04 10:18:00,24.9,23.2,30.41,West,274,0.0,3.0,93,0.00,,---,0.00,VWS V14.01,2013-01-04 18:18:00,
2013-01-04 10:23:00,25.0,23.3,30.41,West,274,1.0,3.0,93,0.00,,---,0.00,VWS V14.01,2013-01-04 18:23:00,
2013-01-04 10:28:00,25.2,23.2,30.41,West,274,0.0,3.0,92,0.00,,---,0.00,VWS V14.01,2013-01-04 18:28:00,
2013-01-04 10:33:00,25.4,23.1,30.41,West,274,2.0,3.0,91,0.00,,---,0.00,VWS V14.01,2013-01-04 18:33:00,
2013-01-04 10:38:00,25.6,23.1,30.41,West,274,1.0,3.0,90,0.00,,---,0.00,VWS V14.01,2013-01-04 18:38:00,
2013-01-04 10:43:00,25.6,23.1,30.41,West,273,0.0,3.0,90,0.00,,---,0.00,VWS V14.01,2013-01-04 18:43:00,
2013-01-04 10:48:00,25.6,22.8,30.41,WSW,240,3.0,4.0,89,0.00,,---,0.00,VWS V14.01,2013-01-04 18:48:00,
2013-01-04 10:53:00,25.6,23.1,30.41,WSW,240,1.0,4.0,90,0.00,,---,0.00,VWS V14.01,2013-01-04 18:53:00,
2013-01-04 10:58:00,25.8,23.0,30.40,SSW,202,2.0,4.0,89,0.00,,---,0.00,VWS V14.01,2013-01-04 18:58:00,
2013-01-04 11:03:00,26.0,23.2,30.40,SSW,202,0.0,1.0,89,0.00,,---,0.00,VWS V14.01,2013-01-04 19:03:00,
2013-01-04 11:08:00,26.2,23.4,30.40,South,179,0.0,2.0,89,0.00,,---,0.00,VWS V14.01,2013-01-04 19:08:00,
2013-01-04 11:13:00,26.3,23.5,30.40,South,179,0.0,2.0,89,0.00,,---,0.00,VWS V14.01,2013-01-04 19:13:00,
2013-01-04 11:18:00,26.5,23.4,30.40,South,179,0.0,2.0,88,0.00,,---,0.00,VWS V14.01,2013-01-04 19:18:00,
2013-01-04 11:23:00,26.7,23.4,30.41,South,179,2.0,2.0,87,0.00,,---,0.00,VWS V14.01,2013-01-04 19:23:00,
2013-01-04 11:28:00,26.8,23.5,30.41,South,179,0.0,5.0,87,0.00,,---,0.00,VWS V14.01,2013-01-04 19:28:00,
2013-01-04 11:33:00,26.8,23.5,30.41,South,179,1.0,5.0,87,0.00,,---,0.00,VWS V14.01,2013-01-04 19:33:00,
2013-01-04 11:38:00,26.9,23.6,30.41,South,179,0.0,5.0,87,0.00,,---,0.00,VWS V14.01,2013-01-04 19:38:00,
2013-01-04 11:43:00,26.8,23.5,30.40,South,179,1.0,5.0,87,0.00,,---,0.00,VWS V14.01,2013-01-04 19:43:00,
2013-01-04 11:48:00,26.8,23.5,30.40,South,179,0.0,5.0,87,0.00,,---,0.00,VWS V14.01,2013-01-04 19:48:00,
2013-01-04 11:53:00,26.9,23.6,30.40,South,179,0.0,5.0,87,0.00,,---,0.00,VWS V14.01,2013-01-04 19:53:00,
2013-01-04 11:58:00,27.0,23.4,30.40,South,179,1.0,5.0,86,0.00,,---,0.00,VWS V14.01,2013-01-04 19:58:00,
2013-01-04 12:03:00,26.9,23.3,30.40,South,179,0.0,1.0,86,0.00,,---,0.00,VWS V14.01,2013-01-04 20:03:00,
2013-01-04 12:08:00,26.9,23.3,30.40,South,179,0.0,1.0,86,0.00,,---,0.00,VWS V14.01,2013-01-04 20:08:00,
2013-01-04 12:13:00,27.1,23.2,30.39,South,179,0.0,1.0,85,0.00,,---,0.00,VWS V14.01,2013-01-04 20:13:00,
2013-01-04 12:24:00,27.1,23.5,30.39,South,179,0.0,1.0,86,0.00,,---,0.00,VWS V14.01,2013-01-04 20:24:00,
2013-01-04 12:29:00,27.2,23.6,30.39,South,179,0.0,1.0,86,0.00,,---,0.00,VWS V14.01,2013-01-04 20:29:00,
2013-01-04 12:34:00,27.4,24.0,30.38,South,179,2.0,2.0,87,0.00,,---,0.00,VWS V14.01,2013-01-04 20:34:00,
2013-01-04 12:39:00,27.5,23.9,30.39,South,179,0.0,2.0,86,0.00,,---,0.00,VWS V14.01,2013-01-04 20:39:00,
2013-01-04 12:44:00,27.3,23.4,30.39,West,263,2.0,2.0,85,0.00,,---,0.00,VWS V14.01,2013-01-04 20:44:00,
2013-01-04 12:49:00,27.3,23.7,30.39,West,263,2.0,3.0,86,0.00,,---,0.00,VWS V14.01,2013-01-04 20:49:00,
2013-01-04 12:54:00,27.2,23.3,30.39,West,263,0.0,3.0,85,0.00,,---,0.00,VWS V14.01,2013-01-04 20:54:00,
2013-01-04 12:59:00,27.2,23.6,30.38,West,265,0.0,3.0,86,0.00,,---,0.00,VWS V14.01,2013-01-04 20:59:00,
2013-01-04 13:04:00,27.5,23.6,30.38,West,265,0.0,2.0,85,0.00,,---,0.00,VWS V14.01,2013-01-04 21:04:00,
2013-01-04 13:09:00,27.7,24.1,30.38,West,265,0.0,2.0,86,0.00,,---,0.00,VWS V14.01,2013-01-04 21:09:00,
2013-01-04 13:14:00,28.2,24.3,30.38,West,265,0.0,2.0,85,0.00,,---,0.00,VWS V14.01,2013-01-04 21:14:00,
2013-01-04 13:19:00,28.2,24.3,30.38,West,265,0.0,2.0,85,0.00,,---,0.00,VWS V14.01,2013-01-04 21:19:00,
2013-01-04 13:24:00,28.4,24.2,30.38,West,265,0.0,2.0,84,0.00,,---,0.00,VWS V14.01,2013-01-04 21:24:00,
2013-01-04 13:29:00,28.4,24.2,30.38,West,265,0.0,2.0,84,0.00,,---,0.00,VWS V14.01,2013-01-04 21:29:00,
2013-01-04 13:34:00,28.5,24.3,30.38,West,265,0.0,2.0,84,0.00,,---,0.00,VWS V14.01,2013-01-04 21:34:00,
2013-01-04 13:39:00,28.8,24.6,30.38,West,265,0.0,2.0,84,0.00,,---,0.00,VWS V14.01,2013-01-04 21:39:00,
2013-01-04 13:44:00,29.0,25.1,30.38,West,265,1.0,2.0,85,0.00,,---,0.00,VWS V14.01,2013-01-04 21:44:00,
2013-01-04 13:49:00,29.1,24.6,30.38,West,265,0.0,2.0,83,0.00,,---,0.00,VWS V14.01,2013-01-04 21:49:00,
2013-01-04 13:54:00,28.8,24.3,30.38,West,265,0.0,2.0,83,0.00,,---,0.00,VWS V14.01,2013-01-04 21:54:00,
2013-01-04 13:59:00,28.6,24.4,30.38,West,265,1.0,2.0,84,0.00,,---,0.00,VWS V14.01,2013-01-04 21:59:00,
2013-01-04 14:04:00,28.4,24.2,30.38,West,265,0.0,0.0,84,0.00,,---,0.00,VWS V14.01,2013-01-04 22:04:00,
2013-01-04 14:09:00,28.5,24.6,30.38,West,265,0.0,1.0,85,0.00,,---,0.00,VWS V14.01,2013-01-04 22:09:00,
2013-01-04 14:14:00,28.7,24.8,30.37,West,265,0.0,1.0,85,0.00,,---,0.00,VWS V14.01,2013-01-04 22:14:00,
2013-01-04 14:19:00,28.7,24.8,30.38,West,265,0.0,2.0,85,0.00,,---,0.00,VWS V14.01,2013-01-04 22:19:00,
2013-01-04 14:24:00,28.7,24.8,30.38,West,265,0.0,2.0,85,0.00,,---,0.00,VWS V14.01,2013-01-04 22:24:00,
2013-01-04 14:29:00,28.7,24.8,30.38,West,265,0.0,2.0,85,0.00,,---,0.00,VWS V14.01,2013-01-04 22:29:00,
2013-01-04 14:34:00,28.6,24.7,30.38,West,265,0.0,2.0,85,0.00,,---,0.00,VWS V14.01,2013-01-04 22:34:00,
2013-01-04 14:39:00,28.5,24.6,30.38,West,265,0.0,2.0,85,0.00,,---,0.00,VWS V14.01,2013-01-04 22:39:00,
2013-01-04 14:44:00,28.4,24.5,30.38,West,265,0.0,2.0,85,0.00,,---,0.00,VWS V14.01,2013-01-04 22:44:00,
2013-01-04 14:49:00,28.3,24.7,30.38,West,265,1.0,2.0,86,0.00,,---,0.00,VWS V14.01,2013-01-04 22:49:00,
2013-01-04 14:54:00,28.1,24.5,30.38,West,265,0.0,2.0,86,0.00,,---,0.00,VWS V14.01,2013-01-04 22:54:00,
2013-01-04 14:59:00,27.9,24.3,30.38,West,265,0.0,2.0,86,0.00,,---,0.00,VWS V14.01,2013-01-04 22:59:00,
2013-01-04 15:04:00,27.8,24.2,30.38,West,265,0.0,1.0,86,0.00,,---,0.00,VWS V14.01,2013-01-04 23:04:00,
2013-01-04 15:09:00,27.7,24.3,30.38,West,265,0.0,1.0,87,0.00,,---,0.00,VWS V14.01,2013-01-04 23:09:00,
2013-01-04 15:14:00,27.6,24.2,30.38,West,265,0.0,2.0,87,0.00,,---,0.00,VWS V14.01,2013-01-04 23:14:00,
2013-01-04 15:19:00,27.5,24.4,30.38,West,265,0.0,2.0,88,0.00,,---,0.00,VWS V14.01,2013-01-04 23:19:00,
2013-01-04 15:24:00,27.4,24.3,30.38,West,266,0.0,2.0,88,0.00,,---,0.00,VWS V14.01,2013-01-04 23:24:00,
2013-01-04 15:29:00,27.4,24.3,30.38,West,266,1.0,2.0,88,0.00,,---,0.00,VWS V14.01,2013-01-04 23:29:00,
2013-01-04 15:34:00,27.2,24.1,30.39,West,266,0.0,2.0,88,0.00,,---,0.00,VWS V14.01,2013-01-04 23:34:00,
2013-01-04 15:39:00,27.2,24.4,30.38,West,266,0.0,2.0,89,0.00,,---,0.00,VWS V14.01,2013-01-04 23:39:00,
2013-01-04 15:44:00,27.1,24.3,30.38,West,266,0.0,2.0,89,0.00,,---,0.00,VWS V14.01,2013-01-04 23:44:00,
2013-01-04 15:49:00,27.2,24.4,30.38,West,266,0.0,2.0,89,0.00,,---,0.00,VWS V14.01,2013-01-04 23:49:00,
2013-01-04 15:54:00,27.0,24.5,30.38,West,266,0.0,2.0,90,0.00,,---,0.00,VWS V14.01,2013-01-04 23:54:00,
2013-01-04 15:59:00,27.0,24.5,30.38,West,266,0.0,2.0,90,0.00,,---,0.00,VWS V14.01,2013-01-04 23:59:00,
2013-01-04 16:04:00,27.0,24.5,30.39,West,266,0.0,0.0,90,0.00,,---,0.00,VWS V14.01,2013-01-05 00:04:00,
2013-01-04 16:09:00,27.0,24.5,30.39,West,266,0.0,0.0,90,0.00,,---,0.00,VWS V14.01,2013-01-05 00:09:00,
2013-01-04 16:14:00,26.9,24.4,30.38,West,266,0.0,0.0,90,0.00,,---,0.00,VWS V14.01,2013-01-05 00:14:00,
2013-01-04 16:19:00,26.8,24.5,30.38,West,266,0.0,0.0,91,0.00,,---,0.00,VWS V14.01,2013-01-05 00:19:00,
2013-01-04 16:24:00,26.7,24.4,30.39,West,266,0.0,0.0,91,0.00,,---,0.00,VWS V14.01,2013-01-05 00:24:00,
2013-01-04 16:28:00,26.6,24.3,30.38,West,266,1.0,2.0,91,0.00,,---,0.00,VWS V14.01,2013-01-05 00:28:00,
2013-01-04 16:33:00,26.5,24.2,30.38,West,268,0.0,2.0,91,0.00,,---,0.00,VWS V14.01,2013-01-05 00:33:00,
2013-01-04 16:38:00,26.4,24.1,30.38,WNW,287,1.0,3.0,91,0.00,,---,0.00,VWS V14.01,2013-01-05 00:38:00,
2013-01-04 16:43:00,26.3,24.0,30.38,WNW,287,0.0,3.0,91,0.00,,---,0.00,VWS V14.01,2013-01-05 00:43:00,
2013-01-04 16:48:00,26.2,23.9,30.38,WNW,287,1.0,3.0,91,0.00,,---,0.00,VWS V14.01,2013-01-05 00:48:00,
2013-01-04 16:54:00,26.2,23.9,30.38,WNW,287,0.0,3.0,91,0.00,,---,0.00,VWS V14.01,2013-01-05 00:54:00,
2013-01-04 16:59:00,26.1,23.8,30.38,WNW,302,0.0,3.0,91,0.00,,---,0.00,VWS V14.01,2013-01-05 00:59:00,
2013-01-04 17:03:00,26.0,23.7,30.38,NNE,29,3.0,3.0,91,0.00,,---,0.00,VWS V14.01,2013-01-05 01:03:00,
2013-01-04 17:08:00,26.0,24.0,30.38,NNE,29,0.0,3.0,92,0.00,,---,0.00,VWS V14.01,2013-01-05 01:08:00,
2013-01-04 17:16:00,25.9,23.9,30.37,NNE,29,2.0,3.0,92,0.00,,---,0.00,VWS V14.01,2013-01-05 01:16:00,
2013-01-04 17:21:00,25.8,23.8,30.37,NNE,28,0.0,4.0,92,0.00,,---,0.00,VWS V14.01,2013-01-05 01:21:00,
2013-01-04 17:26:00,25.7,23.7,30.37,NNE,28,0.0,4.0,92,0.00,,---,0.00,VWS V14.01,2013-01-05 01:26:00,
2013-01-04 17:31:00,25.7,23.7,30.37,NNE,28,0.0,4.0,92,0.00,,---,0.00,VWS V14.01,2013-01-05 01:31:00,
2013-01-04 17:36:00,25.7,23.7,30.37,NNE,28,0.0,4.0,92,0.00,,---,0.00,VWS V14.01,2013-01-05 01:36:00,
2013-01-04 17:41:00,25.6,23.9,30.37,NNE,28,0.0,4.0,93,0.00,,---,0.00,VWS V14.01,2013-01-05 01:41:00,
2013-01-04 17:46:00,25.6,23.9,30.37,NNE,28,0.0,4.0,93,0.00,,---,0.00,VWS V14.01,2013-01-05 01:46:00,
2013-01-04 17:51:00,25.6,23.9,30.37,NNE,28,0.0,4.0,93,0.00,,---,0.00,VWS V14.01,2013-01-05 01:51:00,
2013-01-04 17:56:00,25.6,23.9,30.37,NNE,28,0.0,4.0,93,0.00,,---,0.00,VWS V14.01,2013-01-05 01:56:00,
2013-01-04 18:01:00,25.5,23.8,30.37,NNE,28,0.0,0.0,93,0.00,,---,0.00,VWS V14.01,2013-01-05 02:01:00,
2013-01-04 18:06:00,25.5,23.8,30.37,NNE,28,0.0,0.0,93,0.00,,---,0.00,VWS V14.01,2013-01-05 02:06:00,
2013-01-04 18:11:00,25.5,23.8,30.37,NNE,28,0.0,2.0,93,0.00,,---,0.00,VWS V14.01,2013-01-05 02:11:00,
2013-01-04 18:16:00,25.4,23.7,30.36,NNE,28,1.0,2.0,93,0.00,,---,0.00,VWS V14.01,2013-01-05 02:16:00,
2013-01-04 18:21:00,25.4,23.7,30.36,NNE,28,0.0,2.0,93,0.00,,---,0.00,VWS V14.01,2013-01-05 02:21:00,
2013-01-04 18:26:00,25.4,23.7,30.36,NNE,28,0.0,2.0,93,0.00,,---,0.00,VWS V14.01,2013-01-05 02:26:00,
2013-01-04 18:31:00,25.4,23.7,30.36,NNE,28,0.0,2.0,93,0.00,,---,0.00,VWS V14.01,2013-01-05 02:31:00,
2013-01-04 18:36:00,25.3,23.6,30.37,NNE,28,0.0,2.0,93,0.00,,---,0.00,VWS V14.01,2013-01-05 02:36:00,
2013-01-04 18:41:00,25.3,23.6,30.37,NNE,28,0.0,2.0,93,0.00,,---,0.00,VWS V14.01,2013-01-05 02:41:00,
2013-01-04 18:46:00,25.3,23.6,30.37,NNE,28,0.0,2.0,93,0.00,,---,0.00,VWS V14.01,2013-01-05 02:46:00,
2013-01-04 18:51:00,25.3,23.6,30.37,NNE,28,0.0,2.0,93,0.00,,---,0.00,VWS V14.01,2013-01-05 02:51:00,
2013-01-04 18:56:00,25.3,23.6,30.37,NNE,28,0.0,2.0,93,0.00,,---,0.00,VWS V14.01,2013-01-05 02:56:00,
2013-01-04 19:01:00,25.3,23.6,30.37,NNE,28,0.0,0.0,93,0.00,,---,0.00,VWS V14.01,2013-01-05 03:01:00,
2013-01-04 19:06:00,25.3,23.6,30.37,NNE,28,0.0,0.0,93,0.00,,---,0.00,VWS V14.01,2013-01-05 03:06:00,
2013-01-04 19:11:00,25.3,23.6,30.37,NNE,28,0.0,2.0,93,0.00,,---,0.00,VWS V14.01,2013-01-05 03:11:00,
2013-01-04 19:16:00,25.3,23.6,30.37,NNE,28,0.0,2.0,93,0.00,,---,0.00,VWS V14.01,2013-01-05 03:16:00,
2013-01-04 19:21:00,25.3,23.8,30.36,NNE,28,0.0,2.0,94,0.00,,---,0.00,VWS V14.01,2013-01-05 03:21:00,
2013-01-04 19:26:00,25.3,23.8,30.36,NNE,28,0.0,2.0,94,0.00,,---,0.00,VWS V14.01,2013-01-05 03:26:00,
2013-01-04 19:31:00,25.3,23.8,30.36,NNE,28,0.0,3.0,94,0.00,,---,0.00,VWS V14.01,2013-01-05 03:31:00,
2013-01-04 19:36:00,25.3,23.8,30.36,NNE,29,1.0,3.0,94,0.00,,---,0.00,VWS V14.01,2013-01-05 03:36:00,
2013-01-04 19:41:00,25.3,23.6,30.36,NE,46,0.0,4.0,93,0.00,,---,0.00,VWS V14.01,2013-01-05 03:41:00,
2013-01-04 19:46:00,25.3,23.6,30.36,NE,46,2.0,4.0,93,0.00,,---,0.00,VWS V14.01,2013-01-05 03:46:00,
2013-01-04 19:51:00,25.3,23.6,30.36,NE,46,0.0,4.0,93,0.00,,---,0.00,VWS V14.01,2013-01-05 03:51:00,
2013-01-04 19:56:00,25.4,23.7,30.36,NE,46,0.0,4.0,93,0.00,,---,0.00,VWS V14.01,2013-01-05 03:56:00,
2013-01-04 20:01:00,25.4,23.7,30.36,NE,53,2.0,2.0,93,0.00,,---,0.00,VWS V14.01,2013-01-05 04:01:00,
2013-01-04 20:06:00,25.4,23.7,30.36,NNE,17,2.0,3.0,93,0.00,,---,0.00,VWS V14.01,2013-01-05 04:06:00,
2013-01-04 20:11:00,25.4,23.4,30.36,NNE,29,2.0,3.0,92,0.00,,---,0.00,VWS V14.01,2013-01-05 04:11:00,
2013-01-04 20:16:00,25.3,23.3,30.36,NNE,30,2.0,4.0,92,0.00,,---,0.00,VWS V14.01,2013-01-05 04:16:00,
2013-01-04 20:21:00,25.3,23.3,30.36,NNE,30,1.0,4.0,92,0.00,,---,0.00,VWS V14.01,2013-01-05 04:21:00,
2013-01-04 20:26:00,25.2,23.2,30.36,NNE,30,0.0,4.0,92,0.00,,---,0.00,VWS V14.01,2013-01-05 04:26:00,
2013-01-04 20:31:00,25.2,23.2,30.37,North,355,3.0,5.0,92,0.00,,---,0.00,VWS V14.01,2013-01-05 04:31:00,
2013-01-04 20:36:00,25.2,23.2,30.37,North,355,3.0,5.0,92,0.00,,---,0.00,VWS V14.01,2013-01-05 04:36:00,
2013-01-04 20:41:00,25.2,23.2,30.37,ENE,65,0.0,5.0,92,0.00,,---,0.00,VWS V14.01,2013-01-05 04:41:00,
2013-01-04 20:46:00,25.3,23.3,30.37,NE,42,0.0,5.0,92,0.00,,---,0.00,VWS V14.01,2013-01-05 04:46:00,
2013-01-04 20:51:00,25.3,23.3,30.37,NE,53,1.0,5.0,92,0.00,,---,0.00,VWS V14.01,2013-01-05 04:51:00,
2013-01-04 20:56:00,25.3,23.3,30.37,ENE,61,1.0,5.0,92,0.00,,---,0.00,VWS V14.01,2013-01-05 04:56:00,
2013-01-04 21:00:00,25.3,23.3,30.37,ENE,61,0.0,5.0,92,0.00,,---,0.00,VWS V14.01,2013-01-05 05:00:00,
2013-01-04 21:01:00,25.3,23.3,30.37,ENE,58,0.0,5.0,92,0.00,,---,0.00,VWS V14.01,2013-01-05 05:01:00,
2013-01-04 21:02:00,25.4,23.7,30.37,ENE,58,2.0,3.0,93,0.00,,---,0.00,VWS V14.01,2013-01-05 05:02:00,
2013-01-04 21:07:00,25.4,23.7,30.37,NE,44,0.0,5.0,93,0.00,,---,0.00,VWS V14.01,2013-01-05 05:07:00,
2013-01-04 21:12:00,25.5,23.8,30.37,NE,44,2.0,5.0,93,0.00,,---,0.00,VWS V14.01,2013-01-05 05:12:00,
2013-01-04 21:17:00,25.6,23.9,30.37,NE,47,1.0,5.0,93,0.00,,---,0.00,VWS V14.01,2013-01-05 05:17:00,
2013-01-04 21:22:00,25.6,23.9,30.37,NE,54,2.0,5.0,93,0.00,,---,0.00,VWS V14.01,2013-01-05 05:22:00,
2013-01-04 21:27:00,25.7,24.0,30.37,NE,35,2.0,5.0,93,0.00,,---,0.00,VWS V14.01,2013-01-05 05:27:00,
2013-01-04 21:32:00,25.7,24.0,30.37,NNE,24,1.0,6.0,93,0.00,,---,0.00,VWS V14.01,2013-01-05 05:32:00,
2013-01-04 21:37:00,25.7,23.7,30.37,NE,49,4.0,6.0,92,0.00,,---,0.00,VWS V14.01,2013-01-05 05:37:00,
2013-01-04 21:42:00,25.7,23.7,30.37,NE,44,5.0,6.0,92,0.00,,---,0.00,VWS V14.01,2013-01-05 05:42:00,
2013-01-04 21:47:00,25.7,24.0,30.37,NE,55,4.0,6.0,93,0.00,,---,0.00,VWS V14.01,2013-01-05 05:47:00,
2013-01-04 21:52:00,25.7,24.0,30.37,ENE,69,4.0,6.0,93,0.00,,---,0.00,VWS V14.01,2013-01-05 05:52:00,
2013-01-04 21:57:00,25.8,24.1,30.37,NE,55,2.0,6.0,93,0.00,,---,0.00,VWS V14.01,2013-01-05 05:57:00,
2013-01-04 22:02:00,25.8,24.1,30.37,ENE,67,1.0,2.0,93,0.00,,---,0.00,VWS V14.01,2013-01-05 06:02:00,
2013-01-04 22:07:00,25.8,24.1,30.37,NE,34,3.0,5.0,93,0.00,,---,0.00,VWS V14.01,2013-01-05 06:07:00,
2013-01-04 22:12:00,25.8,24.3,30.37,NE,40,2.0,5.0,94,0.00,,---,0.00,VWS V14.01,2013-01-05 06:12:00,
2013-01-04 22:17:00,25.9,24.4,30.38,NE,40,2.0,5.0,94,0.00,,---,0.00,VWS V14.01,2013-01-05 06:17:00,
2013-01-04 22:22:00,25.9,24.4,30.38,NNE,23,2.0,6.0,94,0.00,,---,0.00,VWS V14.01,2013-01-05 06:22:00,
2013-01-04 22:27:00,26.0,24.5,30.38,NNE,30,3.0,6.0,94,0.00,,---,0.00,VWS V14.01,2013-01-05 06:27:00,
2013-01-04 22:32:00,26.0,24.5,30.37,ENE,58,3.0,6.0,94,0.00,,---,0.00,VWS V14.01,2013-01-05 06:32:00,
2013-01-04 22:37:00,26.1,24.9,30.37,East,84,2.0,6.0,95,0.00,,---,0.00,VWS V14.01,2013-01-05 06:37:00,
2013-01-04 22:42:00,26.1,24.9,30.37,ENE,76,1.0,6.0,95,0.00,,---,0.00,VWS V14.01,2013-01-05 06:42:00,
2013-01-04 22:47:00,26.1,24.9,30.37,NNE,33,1.0,6.0,95,0.00,,---,0.00,VWS V14.01,2013-01-05 06:47:00,
2013-01-04 22:52:00,26.1,24.9,30.37,NE,46,4.0,7.0,95,0.00,,---,0.00,VWS V14.01,2013-01-05 06:52:00,
2013-01-04 22:57:00,26.2,25.0,30.36,NE,40,2.0,7.0,95,0.00,,---,0.00,VWS V14.01,2013-01-05 06:57:00,
2013-01-04 23:02:00,26.2,25.0,30.36,NNE,27,2.0,5.0,95,0.00,,---,0.00,VWS V14.01,2013-01-05 07:02:00,
2013-01-04 23:07:00,26.2,25.0,30.36,NNE,30,3.0,7.0,95,0.00,,---,0.00,VWS V14.01,2013-01-05 07:07:00,
2013-01-04 23:12:00,26.2,25.0,30.35,NNE,27,3.0,7.0,95,0.00,,---,0.00,VWS V14.01,2013-01-05 07:12:00,
2013-01-04 23:17:00,26.3,25.1,30.36,NNE,20,2.0,7.0,95,0.00,,---,0.00,VWS V14.01,2013-01-05 07:17:00,
2013-01-04 23:22:00,26.3,25.1,30.36,ESE,120,0.0,7.0,95,0.00,,---,0.00,VWS V14.01,2013-01-05 07:22:00,
2013-01-04 23:27:00,26.3,25.1,30.36,North,360,5.0,7.0,95,0.00,,---,0.00,VWS V14.01,2013-01-05 07:27:00,
2013-01-04 23:32:00,26.4,25.2,30.36,ENE,60,1.0,7.0,95,0.00,,---,0.00,VWS V14.01,2013-01-05 07:32:00,
2013-01-04 23:37:00,26.4,25.2,30.36,NNE,15,0.0,7.0,95,0.00,,---,0.00,VWS V14.01,2013-01-05 07:37:00,
2013-01-04 23:42:00,26.4,25.2,30.36,NNE,15,0.0,7.0,95,0.00,,---,0.00,VWS V14.01,2013-01-05 07:42:00,
2013-01-04 23:47:00,26.5,25.3,30.36,NNE,15,0.0,7.0,95,0.00,,---,0.00,VWS V14.01,2013-01-05 07:47:00,
2013-01-04 23:52:00,26.5,25.3,30.36,NNW,348,1.0,7.0,95,0.00,,---,0.00,VWS V14.01,2013-01-05 07:52:00,
2013-01-04 23:57:00,26.5,25.3,30.36,NNW,348,2.0,7.0,95,0.00,,---,0.00,VWS V14.01,2013-01-05 07:57:00,